createdAt,value
2018-03-24T00:00:48.363Z,2.96
2018-03-24T00:01:48.337Z,3.03
2018-03-24T00:02:48.319Z,3.06
2018-03-24T00:03:48.307Z,3.06
2018-03-24T00:04:48.277Z,2.99
2018-03-24T00:05:48.253Z,2.97
2018-03-24T00:06:48.239Z,2.95
2018-03-24T00:07:48.213Z,2.97
2018-03-24T00:08:48.191Z,2.95
2018-03-24T00:09:48.168Z,3.00
2018-03-24T00:10:48.145Z,3.00
2018-03-24T00:11:48.135Z,2.84
2018-03-24T00:12:48.107Z,2.95
2018-03-24T00:13:48.100Z,2.96
2018-03-24T00:14:48.059Z,2.96
2018-03-24T00:15:48.041Z,2.96
2018-03-24T00:16:48.022Z,2.87
2018-03-24T00:17:48.001Z,2.89
2018-03-24T00:18:47.978Z,2.89
2018-03-24T00:19:47.958Z,2.96
2018-03-24T00:20:47.938Z,2.87
2018-03-24T00:21:47.914Z,2.92
2018-03-24T00:22:47.893Z,2.82
2018-03-24T00:23:47.874Z,2.95
2018-03-24T00:24:47.850Z,2.87
2018-03-24T00:25:47.830Z,2.87
2018-03-24T00:26:47.820Z,2.87
2018-03-24T00:27:47.787Z,2.89
2018-03-24T00:28:47.771Z,2.85
2018-03-24T00:29:47.744Z,2.92
2018-03-24T00:30:47.733Z,2.89
2018-03-24T00:31:47.709Z,2.90
2018-03-24T00:32:47.686Z,2.93
2018-03-24T00:33:47.660Z,2.93
2018-03-24T00:34:47.636Z,2.92
2018-03-24T00:35:47.612Z,2.93
2018-03-24T00:36:47.594Z,2.93
2018-03-24T00:37:47.572Z,2.84
2018-03-24T00:38:47.552Z,2.87
2018-03-24T00:39:47.533Z,2.89
2018-03-24T00:40:47.514Z,2.89
2018-03-24T00:41:47.502Z,2.84
2018-03-24T00:42:47.472Z,2.89
2018-03-24T00:43:47.449Z,2.89
2018-03-24T00:44:47.425Z,2.89
2018-03-24T00:45:47.410Z,2.87
2018-03-24T00:46:47.383Z,2.92
2018-03-24T00:47:47.360Z,2.89
2018-03-24T00:48:47.344Z,2.85
2018-03-24T00:49:47.320Z,2.84
2018-03-24T00:50:47.297Z,2.89
2018-03-24T00:51:47.275Z,2.85
2018-03-24T00:52:47.254Z,2.87
2018-03-24T00:53:47.232Z,2.89
2018-03-24T00:54:47.214Z,2.95
2018-03-24T00:55:47.190Z,2.87
2018-03-24T00:56:47.170Z,2.96
2018-03-24T00:57:47.148Z,2.96
2018-03-24T00:58:47.131Z,2.93
2018-03-24T00:59:47.104Z,2.95
2018-03-24T01:00:47.086Z,2.95
2018-03-24T01:01:47.064Z,2.97
2018-03-24T01:02:47.040Z,2.97
2018-03-24T01:03:47.018Z,2.93
2018-03-24T01:04:47.003Z,2.96
2018-03-24T01:05:46.978Z,2.85
2018-03-24T01:06:46.964Z,2.85
2018-03-24T01:07:46.935Z,2.87
2018-03-24T01:08:46.915Z,2.90
2018-03-24T01:09:46.891Z,2.85
2018-03-24T01:10:46.873Z,2.79
2018-03-24T01:11:46.854Z,2.82
2018-03-24T01:12:46.828Z,2.85
2018-03-24T01:13:46.817Z,2.81
2018-03-24T01:14:46.789Z,2.79
2018-03-24T01:15:46.763Z,2.79
2018-03-24T01:16:46.749Z,2.79
2018-03-24T01:17:46.724Z,2.82
2018-03-24T01:18:46.705Z,2.92
2018-03-24T01:19:46.684Z,2.93
2018-03-24T01:20:46.664Z,2.78
2018-03-24T01:21:46.638Z,2.93
2018-03-24T01:22:46.619Z,2.93
2018-03-24T01:23:46.599Z,2.81
2018-03-24T01:24:46.573Z,2.75
2018-03-24T01:25:46.554Z,2.75
2018-03-24T01:26:46.534Z,2.79
2018-03-24T01:27:46.510Z,2.72
2018-03-24T01:28:46.494Z,2.85
2018-03-24T01:29:46.466Z,2.74
2018-03-24T01:30:46.503Z,2.78
2018-03-24T01:31:46.424Z,2.81
2018-03-24T01:32:46.407Z,2.74
2018-03-24T01:33:46.382Z,2.79
2018-03-24T01:34:46.415Z,2.74
2018-03-24T01:35:46.341Z,2.63
2018-03-24T01:36:46.370Z,2.67
2018-03-24T01:37:46.304Z,2.75
2018-03-24T01:38:46.275Z,2.81
2018-03-24T01:39:46.256Z,2.81
2018-03-24T01:40:46.235Z,2.81
2018-03-24T01:41:46.211Z,2.79
2018-03-24T01:42:46.193Z,2.67
2018-03-24T01:43:46.171Z,2.75
2018-03-24T01:44:46.256Z,2.77
2018-03-24T01:45:46.132Z,2.67
2018-03-24T01:46:46.110Z,2.75
2018-03-24T01:47:46.093Z,2.69
2018-03-24T01:48:46.066Z,2.75
2018-03-24T01:49:46.047Z,2.77
2018-03-24T01:50:46.021Z,2.75
2018-03-24T01:51:46.004Z,2.85
2018-03-24T01:52:46.131Z,2.82
2018-03-24T01:53:45.957Z,2.93
2018-03-24T01:54:45.984Z,2.89
2018-03-24T01:55:45.914Z,2.82
2018-03-24T01:56:45.895Z,2.92
2018-03-24T01:57:45.870Z,2.96
2018-03-24T01:58:45.912Z,2.93
2018-03-24T01:59:45.830Z,2.96
2018-03-24T02:00:45.908Z,2.97
2018-03-24T02:01:45.789Z,2.92
2018-03-24T02:02:45.766Z,3.00
2018-03-24T02:03:45.742Z,3.03
2018-03-24T02:04:45.880Z,2.97
2018-03-24T02:05:45.704Z,2.96
2018-03-24T02:06:45.808Z,2.92
2018-03-24T02:07:45.662Z,2.84
2018-03-24T02:08:45.686Z,2.87
2018-03-24T02:09:45.616Z,2.90
2018-03-24T02:10:45.794Z,2.89
2018-03-24T02:11:45.573Z,2.89
2018-03-24T02:12:45.554Z,2.92
2018-03-24T02:13:45.533Z,2.81
2018-03-24T02:14:45.513Z,2.72
2018-03-24T02:15:45.490Z,2.69
2018-03-24T02:16:45.525Z,2.71
2018-03-24T02:17:45.453Z,2.81
2018-03-24T02:18:45.474Z,2.81
2018-03-24T02:19:45.404Z,2.78
2018-03-24T02:20:45.383Z,2.72
2018-03-24T02:21:45.364Z,2.77
2018-03-24T02:22:45.340Z,2.81
2018-03-24T02:23:45.320Z,2.78
2018-03-24T02:24:45.300Z,2.74
2018-03-24T02:25:45.275Z,2.75
2018-03-24T02:26:45.256Z,2.77
2018-03-24T02:27:45.231Z,2.72
2018-03-24T02:28:45.211Z,2.74
2018-03-24T02:29:45.193Z,2.78
2018-03-24T02:30:45.171Z,2.72
2018-03-24T02:31:45.157Z,2.72
2018-03-24T02:32:45.131Z,2.79
2018-03-24T02:33:45.109Z,2.75
2018-03-24T02:34:45.084Z,2.77
2018-03-24T02:35:45.070Z,2.75
2018-03-24T02:36:45.044Z,2.77
2018-03-24T02:37:45.026Z,2.77
2018-03-24T02:38:45.005Z,2.71
2018-03-24T02:39:44.980Z,2.78
2018-03-24T02:40:44.959Z,2.77
2018-03-24T02:41:44.939Z,2.79
2018-03-24T02:42:44.914Z,2.79
2018-03-24T02:43:44.896Z,2.79
2018-03-24T02:44:44.872Z,2.61
2018-03-24T02:45:44.850Z,2.63
2018-03-24T02:46:44.832Z,2.69
2018-03-24T02:47:44.810Z,2.71
2018-03-24T02:48:44.792Z,2.78
2018-03-24T02:49:44.766Z,2.77
2018-03-24T02:50:44.746Z,2.75
2018-03-24T02:51:44.727Z,2.74
2018-03-24T02:52:44.702Z,2.74
2018-03-24T02:53:44.690Z,2.69
2018-03-24T02:54:44.661Z,2.72
2018-03-24T02:55:44.640Z,2.72
2018-03-24T02:56:44.623Z,2.61
2018-03-24T02:57:44.593Z,2.69
2018-03-24T02:58:44.574Z,2.63
2018-03-24T02:59:44.555Z,2.69
2018-03-24T03:00:44.532Z,2.67
2018-03-24T03:01:44.509Z,2.71
2018-03-24T03:02:44.490Z,2.61
2018-03-24T03:03:44.467Z,2.67
2018-03-24T03:04:44.452Z,2.59
2018-03-24T03:05:44.424Z,2.59
2018-03-24T03:06:44.408Z,2.63
2018-03-24T03:07:44.382Z,2.60
2018-03-24T03:08:44.365Z,2.60
2018-03-24T03:09:44.342Z,2.67
2018-03-24T03:10:44.323Z,2.64
2018-03-24T03:11:44.298Z,2.61
2018-03-24T03:12:44.276Z,2.64
2018-03-24T03:13:44.257Z,2.71
2018-03-24T03:14:44.254Z,2.64
2018-03-24T03:15:44.219Z,2.78
2018-03-24T03:16:44.191Z,2.64
2018-03-24T03:17:44.175Z,2.66
2018-03-24T03:18:44.149Z,2.67
2018-03-24T03:19:44.134Z,2.61
2018-03-24T03:20:44.111Z,2.60
2018-03-24T03:21:44.083Z,2.69
2018-03-24T03:22:44.064Z,2.61
2018-03-24T03:23:44.049Z,2.63
2018-03-24T03:24:44.022Z,2.56
2018-03-24T03:25:44.000Z,2.59
2018-03-24T03:26:43.975Z,2.63
2018-03-24T03:27:43.961Z,2.67
2018-03-24T03:28:43.938Z,2.54
2018-03-24T03:29:43.928Z,2.61
2018-03-24T03:30:43.892Z,2.60
2018-03-24T03:31:43.874Z,2.61
2018-03-24T03:32:43.850Z,2.61
2018-03-24T03:33:43.827Z,2.60
2018-03-24T03:34:43.810Z,2.61
2018-03-24T03:35:43.794Z,2.61
2018-03-24T03:36:43.765Z,2.54
2018-03-24T03:37:43.744Z,2.61
2018-03-24T03:38:43.722Z,2.59
2018-03-24T03:39:43.742Z,2.59
2018-03-24T03:40:43.683Z,2.54
2018-03-24T03:41:43.658Z,2.54
2018-03-24T03:42:43.635Z,2.59
2018-03-24T03:43:43.625Z,2.61
2018-03-24T03:44:43.593Z,2.63
2018-03-24T03:45:43.575Z,2.67
2018-03-24T03:46:43.549Z,2.61
2018-03-24T03:47:43.534Z,2.59
2018-03-24T03:48:43.507Z,2.61
2018-03-24T03:49:43.486Z,2.56
2018-03-24T03:50:43.464Z,2.54
2018-03-24T03:51:43.442Z,2.53
2018-03-24T03:52:43.422Z,2.53
2018-03-24T03:53:43.404Z,2.60
2018-03-24T03:54:43.380Z,2.57
2018-03-24T03:55:43.357Z,2.64
2018-03-24T03:56:43.340Z,2.64
2018-03-24T03:57:43.314Z,2.56
2018-03-24T03:58:43.293Z,2.59
2018-03-24T03:59:43.271Z,2.59
2018-03-24T04:00:43.254Z,2.52
2018-03-24T04:01:43.232Z,2.60
2018-03-24T04:02:43.208Z,2.59
2018-03-24T04:03:43.191Z,2.64
2018-03-24T04:04:43.168Z,2.52
2018-03-24T04:05:43.147Z,2.61
2018-03-24T04:06:43.125Z,2.52
2018-03-24T04:07:43.100Z,2.61
2018-03-24T04:08:43.078Z,2.57
2018-03-24T04:09:43.064Z,2.56
2018-03-24T04:10:43.042Z,2.54
2018-03-24T04:11:43.015Z,2.53
2018-03-24T04:12:42.994Z,2.57
2018-03-24T04:13:42.973Z,2.53
2018-03-24T04:14:42.956Z,2.54
2018-03-24T04:15:42.929Z,2.53
2018-03-24T04:16:42.914Z,2.56
2018-03-24T04:17:42.888Z,2.57
2018-03-24T04:18:42.865Z,2.53
2018-03-24T04:19:42.845Z,2.61
2018-03-24T04:20:42.823Z,2.61
2018-03-24T04:21:42.800Z,2.59
2018-03-24T04:22:42.778Z,2.52
2018-03-24T04:23:42.756Z,2.59
2018-03-24T04:24:42.738Z,2.53
2018-03-24T04:25:42.723Z,2.60
2018-03-24T04:26:42.693Z,2.48
2018-03-24T04:27:42.673Z,2.53
2018-03-24T04:28:42.652Z,2.54
2018-03-24T04:29:42.627Z,2.54
2018-03-24T04:30:42.607Z,2.49
2018-03-24T04:31:42.589Z,2.53
2018-03-24T04:32:42.566Z,2.46
2018-03-24T04:33:42.543Z,2.48
2018-03-24T04:34:42.527Z,2.42
2018-03-24T04:35:42.501Z,2.49
2018-03-24T04:36:42.483Z,2.42
2018-03-24T04:37:42.458Z,2.43
2018-03-24T04:38:42.438Z,2.46
2018-03-24T04:39:42.440Z,2.45
2018-03-24T04:40:42.394Z,2.53
2018-03-24T04:41:42.373Z,2.59
2018-03-24T04:42:42.351Z,2.54
2018-03-24T04:43:42.329Z,2.52
2018-03-24T04:44:42.308Z,2.54
2018-03-24T04:45:42.392Z,2.53
2018-03-24T04:46:42.265Z,2.54
2018-03-24T04:47:42.243Z,2.61
2018-03-24T04:48:42.223Z,2.60
2018-03-24T04:49:42.204Z,2.66
2018-03-24T04:50:42.183Z,2.64
2018-03-24T04:51:42.256Z,2.63
2018-03-24T04:52:42.136Z,2.69
2018-03-24T04:53:42.121Z,2.71
2018-03-24T04:54:42.092Z,2.54
2018-03-24T04:55:42.177Z,2.63
2018-03-24T04:56:42.050Z,2.66
2018-03-24T04:57:42.033Z,2.63
2018-03-24T04:58:42.009Z,2.59
2018-03-24T04:59:41.990Z,2.59
2018-03-24T05:00:41.965Z,2.63
2018-03-24T05:01:41.948Z,2.64
2018-03-24T05:02:41.923Z,2.60
2018-03-24T05:03:41.989Z,2.61
2018-03-24T05:04:41.879Z,2.69
2018-03-24T05:05:41.894Z,2.67
2018-03-24T05:06:41.836Z,2.71
2018-03-24T05:07:41.814Z,2.71
2018-03-24T05:08:41.793Z,2.67
2018-03-24T05:09:41.784Z,2.75
2018-03-24T05:10:41.753Z,2.78
2018-03-24T05:11:41.733Z,2.72
2018-03-24T05:12:41.709Z,2.75
2018-03-24T05:13:41.685Z,2.78
2018-03-24T05:14:41.664Z,2.89
2018-03-24T05:15:41.643Z,2.81
2018-03-24T05:16:41.625Z,2.90
2018-03-24T05:17:41.599Z,2.89
2018-03-24T05:18:41.576Z,3.00
2018-03-24T05:19:41.559Z,2.89
2018-03-24T05:20:41.540Z,2.97
2018-03-24T05:21:41.516Z,2.99
2018-03-24T05:22:41.493Z,2.97
2018-03-24T05:23:41.474Z,2.92
2018-03-24T05:24:41.451Z,3.00
2018-03-24T05:25:41.434Z,2.99
2018-03-24T05:26:41.409Z,3.02
2018-03-24T05:27:41.394Z,3.06
2018-03-24T05:28:41.369Z,3.05
2018-03-24T05:29:41.345Z,3.02
2018-03-24T05:30:41.324Z,3.00
2018-03-24T05:31:41.304Z,3.11
2018-03-24T05:32:41.283Z,3.06
2018-03-24T05:33:41.317Z,3.05
2018-03-24T05:34:41.241Z,3.10
2018-03-24T05:35:41.219Z,3.08
2018-03-24T05:36:41.200Z,3.14
2018-03-24T05:37:41.179Z,3.08
2018-03-24T05:38:41.158Z,3.18
2018-03-24T05:39:41.138Z,3.18
2018-03-24T05:40:41.113Z,3.11
2018-03-24T05:41:41.091Z,3.11
2018-03-24T05:42:41.069Z,3.17
2018-03-24T05:43:41.056Z,3.17
2018-03-24T05:44:41.030Z,3.24
2018-03-24T05:45:41.005Z,3.31
2018-03-24T05:46:40.987Z,3.28
2018-03-24T05:47:40.969Z,3.24
2018-03-24T05:48:41.005Z,3.39
2018-03-24T05:49:40.937Z,3.32
2018-03-24T05:50:40.897Z,3.40
2018-03-24T05:51:40.879Z,3.39
2018-03-24T05:52:40.866Z,3.40
2018-03-24T05:53:40.837Z,3.40
2018-03-24T05:54:40.819Z,3.28
2018-03-24T05:55:40.792Z,3.31
2018-03-24T05:56:40.810Z,3.31
2018-03-24T05:57:40.753Z,3.29
2018-03-24T05:58:40.731Z,3.21
2018-03-24T05:59:40.726Z,3.21
2018-03-24T06:00:40.689Z,3.15
2018-03-24T06:01:40.679Z,3.17
2018-03-24T06:02:40.647Z,3.31
2018-03-24T06:03:40.631Z,3.33
2018-03-24T06:04:40.608Z,3.39
2018-03-24T06:05:40.584Z,3.33
2018-03-24T06:06:40.563Z,3.33
2018-03-24T06:07:40.544Z,3.39
2018-03-24T06:08:40.522Z,3.35
2018-03-24T06:09:40.503Z,3.42
2018-03-24T06:10:40.482Z,3.39
2018-03-24T06:11:40.458Z,3.39
2018-03-24T06:12:40.444Z,3.42
2018-03-24T06:13:40.413Z,3.39
2018-03-24T06:14:40.393Z,3.42
2018-03-24T06:15:40.373Z,3.42
2018-03-24T06:16:40.352Z,3.47
2018-03-24T06:17:40.330Z,3.45
2018-03-24T06:18:40.357Z,3.48
2018-03-24T06:19:40.290Z,3.54
2018-03-24T06:20:40.276Z,3.52
2018-03-24T06:21:40.263Z,3.48
2018-03-24T06:22:40.227Z,3.60
2018-03-24T06:23:40.204Z,3.61
2018-03-24T06:24:40.353Z,3.52
2018-03-24T06:25:40.166Z,3.58
2018-03-24T06:26:40.148Z,3.55
2018-03-24T06:27:40.124Z,3.55
2018-03-24T06:28:40.114Z,3.54
2018-03-24T06:29:40.085Z,3.57
2018-03-24T06:30:40.107Z,3.57
2018-03-24T06:31:40.045Z,3.54
2018-03-24T06:32:40.025Z,3.65
2018-03-24T06:33:39.994Z,3.65
2018-03-24T06:34:39.981Z,3.66
2018-03-24T06:35:39.954Z,3.68
2018-03-24T06:36:39.933Z,3.69
2018-03-24T06:37:39.913Z,3.72
2018-03-24T06:38:39.894Z,3.75
2018-03-24T06:39:39.872Z,3.61
2018-03-24T06:40:39.903Z,3.78
2018-03-24T06:41:39.830Z,3.72
2018-03-24T06:42:39.911Z,3.65
2018-03-24T06:43:39.791Z,3.75
2018-03-24T06:44:39.767Z,3.66
2018-03-24T06:45:39.754Z,3.76
2018-03-24T06:46:39.772Z,3.70
2018-03-24T06:47:39.702Z,3.69
2018-03-24T06:48:39.718Z,3.73
2018-03-24T06:49:39.664Z,3.72
2018-03-24T06:50:39.694Z,3.72
2018-03-24T06:51:39.624Z,3.73
2018-03-24T06:52:39.650Z,3.75
2018-03-24T06:53:39.582Z,3.61
2018-03-24T06:54:39.562Z,3.62
2018-03-24T06:55:39.538Z,3.75
2018-03-24T06:56:39.522Z,3.70
2018-03-24T06:57:39.497Z,3.68
2018-03-24T06:58:39.476Z,3.68
2018-03-24T06:59:39.452Z,3.76
2018-03-24T07:00:39.433Z,3.75
2018-03-24T07:01:39.411Z,3.79
2018-03-24T07:02:39.389Z,3.70
2018-03-24T07:03:39.371Z,3.83
2018-03-24T07:04:39.349Z,3.78
2018-03-24T07:05:39.329Z,3.75
2018-03-24T07:06:39.316Z,3.72
2018-03-24T07:07:39.302Z,3.84
2018-03-24T07:08:39.270Z,3.80
2018-03-24T07:09:39.244Z,3.83
2018-03-24T07:10:39.227Z,3.78
2018-03-24T07:11:39.204Z,3.84
2018-03-24T07:12:39.186Z,3.78
2018-03-24T07:13:39.164Z,3.75
2018-03-24T07:14:39.155Z,3.84
2018-03-24T07:15:39.132Z,3.86
2018-03-24T07:16:39.097Z,3.87
2018-03-24T07:17:39.081Z,3.84
2018-03-24T07:18:39.073Z,3.88
2018-03-24T07:19:39.037Z,3.80
2018-03-24T07:20:39.019Z,3.83
2018-03-24T07:21:39.001Z,3.87
2018-03-24T07:22:38.975Z,3.93
2018-03-24T07:23:38.959Z,3.88
2018-03-24T07:24:38.938Z,3.84
2018-03-24T07:25:38.923Z,3.90
2018-03-24T07:26:38.894Z,3.96
2018-03-24T07:27:38.880Z,3.87
2018-03-24T07:28:38.855Z,3.87
2018-03-24T07:29:38.833Z,3.91
2018-03-24T07:30:38.813Z,4.00
2018-03-24T07:31:38.789Z,4.05
2018-03-24T07:32:38.775Z,4.06
2018-03-24T07:33:38.750Z,4.08
2018-03-24T07:34:38.729Z,4.06
2018-03-24T07:35:38.722Z,4.09
2018-03-24T07:36:38.687Z,4.12
2018-03-24T07:37:38.664Z,4.23
2018-03-24T07:38:38.642Z,4.18
2018-03-24T07:39:38.624Z,4.16
2018-03-24T07:40:38.610Z,4.14
2018-03-24T07:41:38.581Z,4.26
2018-03-24T07:42:38.563Z,4.30
2018-03-24T07:43:38.542Z,4.33
2018-03-24T07:44:38.524Z,4.33
2018-03-24T07:45:38.500Z,4.33
2018-03-24T07:46:38.481Z,4.33
2018-03-24T07:47:38.483Z,4.33
2018-03-24T07:48:38.444Z,4.40
2018-03-24T07:49:38.418Z,4.32
2018-03-24T07:50:38.450Z,4.30
2018-03-24T07:51:38.377Z,4.32
2018-03-24T07:52:38.360Z,4.29
2018-03-24T07:53:38.348Z,4.44
2018-03-24T07:54:38.397Z,4.41
2018-03-24T07:55:38.298Z,4.45
2018-03-24T07:56:38.347Z,4.44
2018-03-24T07:57:38.255Z,4.44
2018-03-24T07:58:38.285Z,4.45
2018-03-24T07:59:38.221Z,4.47
2018-03-24T08:00:38.197Z,4.45
2018-03-24T08:01:38.187Z,4.50
2018-03-24T08:02:38.153Z,4.50
2018-03-24T08:03:38.185Z,4.55
2018-03-24T08:04:38.111Z,4.51
2018-03-24T08:05:38.093Z,4.47
2018-03-24T08:06:38.196Z,4.52
2018-03-24T08:07:38.057Z,4.51
2018-03-24T08:08:38.029Z,4.58
2018-03-24T08:09:38.055Z,4.51
2018-03-24T08:10:37.991Z,4.62
2018-03-24T08:11:37.972Z,4.54
2018-03-24T08:12:37.958Z,4.62
2018-03-24T08:13:37.930Z,4.60
2018-03-24T08:14:37.919Z,4.62
2018-03-24T08:15:37.888Z,4.63
2018-03-24T08:16:37.874Z,4.67
2018-03-24T08:17:37.859Z,4.73
2018-03-24T08:18:37.831Z,4.72
2018-03-24T08:19:37.811Z,4.77
2018-03-24T08:20:37.793Z,4.78
2018-03-24T08:21:37.768Z,4.82
2018-03-24T08:22:37.750Z,4.78
2018-03-24T08:23:37.733Z,4.82
2018-03-24T08:24:37.707Z,4.88
2018-03-24T08:25:37.686Z,4.88
2018-03-24T08:26:37.670Z,4.85
2018-03-24T08:27:37.650Z,4.99
2018-03-24T08:28:37.633Z,4.96
2018-03-24T08:29:37.608Z,5.00
2018-03-24T08:30:37.591Z,5.04
2018-03-24T08:31:37.573Z,5.04
2018-03-24T08:32:37.552Z,5.04
2018-03-24T08:33:37.533Z,5.06
2018-03-24T08:34:37.508Z,5.09
2018-03-24T08:35:37.540Z,5.12
2018-03-24T08:36:37.466Z,5.07
2018-03-24T08:37:37.451Z,5.03
2018-03-24T08:38:37.430Z,5.00
2018-03-24T08:39:37.410Z,5.09
2018-03-24T08:40:37.390Z,5.09
2018-03-24T08:41:37.368Z,5.04
2018-03-24T08:42:37.353Z,5.10
2018-03-24T08:43:37.327Z,5.10
2018-03-24T08:44:37.308Z,5.15
2018-03-24T08:45:37.288Z,5.12
2018-03-24T08:46:37.272Z,5.15
2018-03-24T08:47:37.247Z,5.25
2018-03-24T08:48:37.232Z,5.22
2018-03-24T08:49:37.209Z,5.28
2018-03-24T08:50:37.188Z,5.21
2018-03-24T08:51:37.170Z,5.28
2018-03-24T08:52:37.146Z,5.39
2018-03-24T08:53:37.129Z,5.28
2018-03-24T08:54:37.106Z,5.31
2018-03-24T08:55:37.089Z,5.28
2018-03-24T08:56:37.105Z,5.43
2018-03-24T08:57:37.050Z,5.45
2018-03-24T08:58:37.043Z,5.36
2018-03-24T08:59:37.011Z,5.39
2018-03-24T09:00:36.995Z,5.36
2018-03-24T09:01:36.969Z,5.33
2018-03-24T09:02:36.954Z,5.30
2018-03-24T09:03:36.933Z,5.38
2018-03-24T09:04:36.916Z,5.35
2018-03-24T09:05:36.893Z,5.21
2018-03-24T09:06:36.874Z,5.20
2018-03-24T09:07:36.852Z,5.25
2018-03-24T09:08:36.886Z,5.35
2018-03-24T09:09:36.815Z,5.43
2018-03-24T09:10:36.794Z,5.38
2018-03-24T09:11:36.775Z,5.48
2018-03-24T09:12:36.754Z,5.40
2018-03-24T09:13:36.733Z,5.38
2018-03-24T09:14:36.712Z,5.40
2018-03-24T09:15:36.694Z,5.40
2018-03-24T09:16:36.680Z,5.40
2018-03-24T09:17:36.665Z,5.40
2018-03-24T09:18:36.636Z,5.48
2018-03-24T09:19:36.615Z,5.53
2018-03-24T09:20:36.603Z,5.53
2018-03-24T09:21:36.575Z,5.33
2018-03-24T09:22:36.561Z,5.43
2018-03-24T09:23:36.541Z,5.51
2018-03-24T09:24:36.528Z,5.56
2018-03-24T09:25:36.500Z,5.56
2018-03-24T09:26:36.481Z,5.57
2018-03-24T09:27:36.460Z,5.60
2018-03-24T09:28:36.440Z,5.61
2018-03-24T09:29:36.417Z,5.61
2018-03-24T09:30:36.399Z,5.65
2018-03-24T09:31:36.383Z,5.65
2018-03-24T09:32:36.363Z,5.71
2018-03-24T09:33:36.392Z,5.78
2018-03-24T09:34:36.322Z,5.81
2018-03-24T09:35:36.304Z,5.78
2018-03-24T09:36:36.325Z,5.81
2018-03-24T09:37:36.261Z,5.79
2018-03-24T09:38:36.244Z,5.82
2018-03-24T09:39:36.222Z,5.81
2018-03-24T09:40:36.209Z,5.86
2018-03-24T09:41:36.183Z,5.97
2018-03-24T09:42:36.163Z,5.90
2018-03-24T09:43:36.148Z,5.91
2018-03-24T09:44:36.132Z,5.91
2018-03-24T09:45:36.107Z,5.93
2018-03-24T09:46:36.091Z,6.00
2018-03-24T09:47:36.070Z,6.04
2018-03-24T09:48:36.062Z,6.09
2018-03-24T09:49:36.029Z,6.11
2018-03-24T09:50:36.014Z,6.11
2018-03-24T09:51:35.998Z,6.17
2018-03-24T09:52:35.974Z,6.19
2018-03-24T09:53:35.954Z,6.25
2018-03-24T09:54:35.933Z,6.34
2018-03-24T09:55:35.919Z,6.46
2018-03-24T09:56:35.896Z,6.48
2018-03-24T09:57:35.878Z,6.44
2018-03-24T09:58:35.863Z,6.59
2018-03-24T09:59:35.838Z,6.58
2018-03-24T10:00:35.824Z,6.61
2018-03-24T10:01:35.800Z,6.62
2018-03-24T10:02:35.783Z,6.55
2018-03-24T10:03:35.764Z,6.73
2018-03-24T10:04:35.747Z,6.79
2018-03-24T10:05:35.732Z,6.87
2018-03-24T10:06:35.709Z,6.87
2018-03-24T10:07:35.690Z,6.91
2018-03-24T10:08:35.673Z,6.94
2018-03-24T10:09:35.648Z,7.06
2018-03-24T10:10:35.633Z,7.03
2018-03-24T10:11:35.617Z,7.05
2018-03-24T10:12:35.600Z,7.15
2018-03-24T10:13:35.580Z,7.20
2018-03-24T10:14:35.569Z,7.25
2018-03-24T10:15:35.543Z,7.39
2018-03-24T10:16:35.522Z,7.43
2018-03-24T10:17:35.507Z,7.35
2018-03-24T10:18:35.490Z,7.52
2018-03-24T10:19:35.470Z,7.52
2018-03-24T10:20:35.457Z,7.52
2018-03-24T10:21:35.542Z,7.55
2018-03-24T10:22:35.418Z,7.53
2018-03-24T10:23:35.401Z,7.61
2018-03-24T10:24:35.387Z,7.71
2018-03-24T10:25:35.362Z,7.72
2018-03-24T10:26:35.344Z,7.85
2018-03-24T10:27:35.328Z,7.86
2018-03-24T10:28:35.309Z,7.75
2018-03-24T10:29:35.293Z,7.85
2018-03-24T10:30:35.276Z,7.87
2018-03-24T10:31:35.256Z,7.80
2018-03-24T10:32:35.243Z,7.82
2018-03-24T10:33:35.222Z,7.86
2018-03-24T10:34:35.203Z,8.02
2018-03-24T10:35:35.194Z,8.02
2018-03-24T10:36:35.174Z,8.10
2018-03-24T10:37:35.154Z,8.12
2018-03-24T10:38:35.135Z,8.12
2018-03-24T10:39:35.121Z,8.19
2018-03-24T10:40:35.102Z,8.26
2018-03-24T10:41:35.087Z,8.22
2018-03-24T10:42:35.073Z,8.37
2018-03-24T10:43:35.049Z,8.43
2018-03-24T10:44:35.041Z,8.38
2018-03-24T10:45:35.018Z,8.41
2018-03-24T10:46:35.004Z,8.36
2018-03-24T10:47:34.984Z,8.48
2018-03-24T10:48:34.968Z,8.41
2018-03-24T10:49:34.955Z,8.48
2018-03-24T10:50:34.933Z,8.38
2018-03-24T10:51:34.921Z,8.23
2018-03-24T10:52:34.904Z,8.29
2018-03-24T10:53:34.891Z,8.29
2018-03-24T10:54:34.865Z,8.20
2018-03-24T10:55:34.850Z,8.25
2018-03-24T10:56:34.835Z,8.18
2018-03-24T10:57:34.816Z,8.08
2018-03-24T10:58:34.801Z,7.93
2018-03-24T10:59:34.784Z,7.86
2018-03-24T11:00:34.773Z,7.85
2018-03-24T11:01:34.753Z,7.86
2018-03-24T11:02:34.734Z,7.87
2018-03-24T11:03:34.724Z,7.83
2018-03-24T11:04:34.700Z,7.86
2018-03-24T11:05:34.684Z,7.83
2018-03-24T11:06:34.666Z,7.87
2018-03-24T11:07:34.650Z,7.79
2018-03-24T11:08:34.633Z,7.74
2018-03-24T11:09:34.624Z,7.75
2018-03-24T11:10:34.605Z,7.61
2018-03-24T11:11:34.580Z,7.72
2018-03-24T11:12:34.571Z,7.55
2018-03-24T11:13:34.552Z,7.69
2018-03-24T11:14:34.533Z,7.60
2018-03-24T11:15:34.513Z,7.71
2018-03-24T11:16:34.496Z,7.60
2018-03-24T11:17:34.479Z,7.64
2018-03-24T11:18:34.472Z,7.64
2018-03-24T11:19:34.450Z,7.72
2018-03-24T11:20:34.432Z,7.74
2018-03-24T11:21:34.416Z,7.71
2018-03-24T11:22:34.392Z,7.69
2018-03-24T11:23:34.377Z,7.79
2018-03-24T11:24:34.360Z,7.69
2018-03-24T11:25:34.338Z,7.82
2018-03-24T11:26:34.345Z,7.74
2018-03-24T11:27:34.302Z,7.86
2018-03-24T11:28:34.289Z,7.83
2018-03-24T11:29:34.270Z,7.85
2018-03-24T11:30:34.255Z,7.79
2018-03-24T11:31:34.240Z,7.77
2018-03-24T11:32:34.225Z,7.75
2018-03-24T11:33:34.212Z,7.69
2018-03-24T11:34:34.186Z,7.85
2018-03-24T11:35:34.164Z,7.80
2018-03-24T11:36:34.148Z,7.83
2018-03-24T11:37:34.132Z,7.90
2018-03-24T11:38:34.114Z,7.92
2018-03-24T11:39:34.105Z,7.92
2018-03-24T11:40:34.081Z,8.01
2018-03-24T11:41:34.068Z,7.82
2018-03-24T11:42:34.043Z,7.86
2018-03-24T11:43:34.030Z,7.87
2018-03-24T11:44:34.019Z,7.87
2018-03-24T11:45:33.993Z,7.83
2018-03-24T11:46:33.974Z,7.86
2018-03-24T11:47:33.961Z,7.89
2018-03-24T11:48:33.942Z,7.85
2018-03-24T11:49:33.924Z,7.83
2018-03-24T11:50:33.903Z,7.93
2018-03-24T11:51:33.893Z,8.00
2018-03-24T11:52:33.870Z,8.10
2018-03-24T11:53:33.854Z,8.12
2018-03-24T11:54:33.833Z,8.16
2018-03-24T11:55:33.827Z,8.22
2018-03-24T11:56:33.799Z,8.18
2018-03-24T11:57:33.781Z,8.15
2018-03-24T11:58:33.773Z,8.15
2018-03-24T11:59:33.751Z,8.10
2018-03-24T12:00:33.732Z,8.15
2018-03-24T12:01:33.711Z,8.12
2018-03-24T12:02:33.702Z,8.15
2018-03-24T12:03:33.680Z,8.28
2018-03-24T12:04:33.665Z,8.25
2018-03-24T12:05:33.645Z,8.23
2018-03-24T12:06:33.637Z,8.23
2018-03-24T12:07:33.609Z,8.25
2018-03-24T12:08:33.601Z,8.26
2018-03-24T12:09:33.577Z,8.29
2018-03-24T12:10:33.564Z,8.22
2018-03-24T12:11:33.593Z,8.28
2018-03-24T12:12:33.531Z,8.23
2018-03-24T12:13:33.506Z,8.29
2018-03-24T12:14:33.491Z,8.29
2018-03-24T12:15:33.473Z,8.33
2018-03-24T12:16:33.459Z,8.45
2018-03-24T12:17:33.447Z,8.47
2018-03-24T12:18:33.424Z,8.53
2018-03-24T12:19:33.411Z,8.53
2018-03-24T12:20:33.391Z,8.62
2018-03-24T12:21:33.372Z,8.59
2018-03-24T12:22:33.363Z,8.53
2018-03-24T12:23:33.337Z,8.55
2018-03-24T12:24:33.320Z,8.58
2018-03-24T12:25:33.307Z,8.58
2018-03-24T12:26:33.297Z,8.55
2018-03-24T12:27:33.275Z,8.61
2018-03-24T12:28:33.257Z,8.45
2018-03-24T12:29:33.237Z,8.45
2018-03-24T12:30:33.220Z,8.50
2018-03-24T12:31:33.202Z,8.58
2018-03-24T12:32:33.190Z,8.53
2018-03-24T12:33:33.172Z,8.61
2018-03-24T12:34:33.159Z,8.59
2018-03-24T12:35:33.144Z,8.70
2018-03-24T12:36:33.120Z,8.68
2018-03-24T12:37:33.104Z,8.80
2018-03-24T12:38:33.089Z,8.80
2018-03-24T12:39:33.076Z,8.81
2018-03-24T12:40:33.067Z,8.92
2018-03-24T12:41:33.039Z,9.01
2018-03-24T12:42:33.020Z,8.91
2018-03-24T12:43:33.012Z,8.96
2018-03-24T12:44:32.987Z,9.10
2018-03-24T12:45:32.974Z,9.20
2018-03-24T12:46:32.962Z,9.33
2018-03-24T12:47:32.973Z,9.33
2018-03-24T12:48:32.930Z,9.61
2018-03-24T12:49:32.911Z,9.83
2018-03-24T12:50:32.894Z,9.90
2018-03-24T12:51:32.885Z,10.55
2018-03-24T12:52:32.864Z,10.60
2018-03-24T12:53:32.859Z,10.74
2018-03-24T12:54:32.832Z,10.79
2018-03-24T12:55:32.824Z,10.68
2018-03-24T12:56:32.809Z,10.61
2018-03-24T12:57:32.798Z,10.63
2018-03-24T12:58:32.779Z,10.74
2018-03-24T12:59:32.763Z,10.61
2018-03-24T13:00:32.756Z,10.56
2018-03-24T13:01:32.736Z,10.41
2018-03-24T13:02:32.724Z,10.34
2018-03-24T13:03:32.714Z,10.36
2018-03-24T13:04:32.703Z,10.55
2018-03-24T13:05:32.685Z,10.53
2018-03-24T13:06:32.670Z,10.60
2018-03-24T13:07:32.664Z,10.63
2018-03-24T13:08:32.645Z,10.74
2018-03-24T13:09:32.638Z,10.85
2018-03-24T13:10:32.618Z,10.79
2018-03-24T13:11:32.611Z,10.74
2018-03-24T13:12:32.597Z,10.60
2018-03-24T13:13:32.577Z,10.71
2018-03-24T13:14:32.567Z,10.84
2018-03-24T13:15:32.552Z,10.94
2018-03-24T13:16:32.542Z,10.89
2018-03-24T13:17:32.536Z,10.89